createdAt,value
2022-10-26T00:04:00.522Z,10.85
2022-10-26T00:09:03.174Z,10.88
2022-10-26T00:14:06.013Z,10.85
2022-10-26T00:19:08.601Z,10.87
2022-10-26T00:24:11.231Z,10.86
2022-10-26T00:29:18.326Z,10.90
2022-10-26T00:34:21.028Z,10.90
2022-10-26T00:39:23.733Z,10.89
2022-10-26T00:44:27.145Z,10.98
2022-10-26T00:49:29.892Z,11.04
2022-10-26T00:54:32.552Z,10.92
2022-10-26T00:59:35.276Z,10.97
2022-10-26T01:04:37.846Z,10.95
2022-10-26T01:09:40.436Z,10.98
2022-10-26T01:14:43.205Z,11.15
2022-10-26T01:19:47.714Z,11.19
2022-10-26T01:24:50.394Z,11.17
2022-10-26T01:29:53.522Z,11.22
2022-10-26T01:34:56.534Z,11.11
2022-10-26T01:39:59.214Z,11.10
2022-10-26T01:45:01.870Z,11.13
2022-10-26T01:50:05.023Z,11.21
2022-10-26T01:55:07.644Z,11.11
2022-10-26T02:00:10.273Z,11.01
2022-10-26T02:05:13.378Z,10.95
2022-10-26T02:10:16.049Z,10.99
2022-10-26T02:15:18.725Z,10.95
2022-10-26T02:20:21.675Z,10.86
2022-10-26T02:25:24.268Z,10.80
2022-10-26T02:30:26.863Z,10.73
2022-10-26T02:35:29.411Z,10.76
2022-10-26T02:40:32.035Z,10.90
2022-10-26T02:45:35.005Z,10.93
2022-10-26T02:50:37.736Z,10.96
2022-10-26T02:55:41.351Z,11.05
2022-10-26T03:00:43.971Z,11.08
2022-10-26T03:05:46.587Z,11.15
2022-10-26T03:10:49.232Z,11.24
2022-10-26T03:15:51.835Z,11.23
2022-10-26T03:20:54.407Z,11.09
2022-10-26T03:25:57.044Z,11.01
2022-10-26T03:30:59.673Z,10.99
2022-10-26T03:36:02.378Z,11.02
2022-10-26T03:41:05.413Z,11.14
2022-10-26T03:46:08.099Z,11.04
2022-10-26T03:51:10.822Z,10.99
2022-10-26T03:56:13.509Z,10.99
2022-10-26T04:01:16.248Z,11.02
2022-10-26T04:06:18.989Z,11.04
2022-10-26T04:11:21.565Z,11.09
2022-10-26T04:16:26.521Z,11.09
2022-10-26T04:21:32.822Z,11.20
2022-10-26T04:26:35.470Z,11.24
2022-10-26T04:31:38.264Z,11.29
2022-10-26T04:36:40.986Z,11.30
2022-10-26T04:41:43.843Z,11.33
2022-10-26T04:46:46.826Z,11.30
2022-10-26T04:51:49.471Z,11.27
2022-10-26T04:56:52.096Z,11.27
2022-10-26T05:01:55.221Z,11.33
2022-10-26T05:06:57.955Z,11.40
2022-10-26T05:12:00.538Z,11.25
2022-10-26T05:17:03.120Z,11.16
2022-10-26T05:22:06.123Z,11.02
2022-10-26T05:27:08.719Z,10.95
2022-10-26T05:32:11.302Z,11.03
2022-10-26T05:37:13.871Z,11.03
2022-10-26T05:42:16.520Z,11.02
2022-10-26T05:47:19.118Z,11.00
2022-10-26T05:52:21.723Z,11.00
2022-10-26T05:57:24.344Z,10.94
2022-10-26T06:02:27.064Z,10.81
2022-10-26T06:07:29.762Z,10.73
2022-10-26T06:12:32.376Z,10.59
2022-10-26T06:17:34.985Z,10.60
2022-10-26T06:22:37.585Z,10.67
2022-10-26T06:27:40.159Z,10.77
2022-10-26T06:32:42.841Z,10.82
2022-10-26T06:37:45.786Z,10.87
2022-10-26T06:42:48.403Z,11.13
2022-10-26T06:47:51.308Z,11.33
2022-10-26T06:52:53.982Z,11.62
2022-10-26T06:57:56.663Z,11.81
2022-10-26T07:03:00.116Z,11.98
2022-10-26T07:08:03.242Z,12.07
2022-10-26T07:13:05.851Z,12.24
2022-10-26T07:18:08.569Z,12.40
2022-10-26T07:23:11.938Z,12.49
2022-10-26T07:28:14.497Z,12.59
2022-10-26T07:33:17.130Z,12.61
2022-10-26T07:38:19.712Z,12.74
2022-10-26T07:43:22.272Z,12.70
2022-10-26T07:48:24.866Z,12.72
2022-10-26T07:53:28.164Z,12.75
2022-10-26T07:58:30.937Z,12.76
2022-10-26T08:03:33.783Z,12.87
2022-10-26T08:08:36.477Z,12.99
2022-10-26T08:13:39.171Z,13.20
2022-10-26T08:18:41.822Z,13.33
2022-10-26T08:23:44.498Z,13.47
2022-10-26T08:28:47.165Z,13.70
2022-10-26T08:33:49.785Z,14.01
2022-10-26T08:38:52.789Z,14.66
2022-10-26T08:43:55.941Z,14.90
2022-10-26T08:48:58.629Z,15.10
2022-10-26T08:54:01.310Z,15.34
2022-10-26T08:59:04.048Z,15.43
2022-10-26T09:04:06.867Z,15.49
2022-10-26T09:09:09.579Z,16.34
2022-10-26T09:14:12.261Z,17.09
2022-10-26T09:19:14.921Z,17.42
2022-10-26T09:24:17.551Z,17.75
2022-10-26T09:29:20.252Z,18.18
2022-10-26T09:34:22.913Z,18.54
2022-10-26T09:39:26.046Z,19.59
2022-10-26T09:44:28.702Z,19.94
2022-10-26T09:49:32.966Z,19.51
2022-10-26T09:54:35.724Z,19.89
2022-10-26T09:59:38.390Z,20.15
2022-10-26T10:04:41.305Z,19.81
2022-10-26T10:09:44.009Z,19.74
2022-10-26T10:14:46.681Z,19.68
2022-10-26T10:19:49.383Z,19.51
2022-10-26T10:24:56.151Z,19.04
2022-10-26T10:30:03.070Z,19.20
2022-10-26T10:35:07.174Z,19.41
2022-10-26T10:40:09.738Z,19.60
2022-10-26T10:45:12.746Z,19.59
2022-10-26T10:50:15.373Z,19.54
2022-10-26T10:55:18.147Z,19.25
2022-10-26T11:00:20.751Z,19.40
2022-10-26T11:05:26.404Z,19.27
2022-10-26T11:10:30.258Z,19.33
2022-10-26T11:15:33.028Z,19.37
2022-10-26T11:20:35.679Z,19.44
2022-10-26T11:25:38.305Z,19.60
2022-10-26T11:30:40.931Z,19.93
2022-10-26T11:35:43.505Z,19.90
2022-10-26T11:40:46.308Z,19.71
2022-10-26T11:45:48.953Z,19.48
2022-10-26T11:50:51.597Z,19.79
2022-10-26T11:55:54.414Z,19.52
2022-10-26T12:00:59.440Z,19.19
2022-10-26T12:06:02.067Z,18.82
2022-10-26T12:11:04.805Z,19.09
2022-10-26T12:16:07.528Z,19.22
2022-10-26T12:21:10.255Z,19.41
2022-10-26T12:26:12.903Z,19.34
2022-10-26T12:31:15.621Z,19.04
2022-10-26T12:36:18.198Z,18.86
2022-10-26T12:41:21.099Z,18.86
2022-10-26T12:46:23.700Z,18.93
2022-10-26T12:51:26.385Z,19.25
2022-10-26T12:56:28.990Z,19.29
2022-10-26T13:01:31.693Z,19.33
2022-10-26T13:06:34.781Z,19.41
2022-10-26T13:11:38.397Z,19.37
2022-10-26T13:16:41.056Z,19.47
2022-10-26T13:21:43.653Z,19.63
2022-10-26T13:26:46.297Z,19.43
2022-10-26T13:31:48.967Z,19.34
2022-10-26T13:36:51.765Z,19.42
2022-10-26T13:41:54.437Z,19.24
2022-10-26T13:46:57.420Z,19.03
2022-10-26T13:52:00.091Z,19.13
2022-10-26T13:57:02.761Z,19.18
2022-10-26T14:02:05.436Z,19.33
2022-10-26T14:07:08.447Z,19.16
2022-10-26T14:12:11.254Z,19.31
2022-10-26T14:17:13.886Z,19.15
2022-10-26T14:22:20.818Z,19.26
2022-10-26T14:27:25.452Z,19.32
2022-10-26T14:32:28.083Z,19.32
2022-10-26T14:37:30.747Z,19.27
2022-10-26T14:42:33.323Z,19.09
2022-10-26T14:47:35.858Z,19.07
2022-10-26T14:52:38.454Z,18.89
2022-10-26T14:57:41.107Z,18.83
2022-10-26T15:02:43.784Z,18.60
2022-10-26T15:07:46.751Z,18.49
2022-10-26T15:12:49.601Z,18.31
2022-10-26T15:17:52.593Z,18.09
2022-10-26T15:22:55.559Z,17.89
2022-10-26T15:27:58.197Z,17.87
2022-10-26T15:33:00.881Z,17.71
2022-10-26T15:38:04.139Z,17.60
2022-10-26T15:43:07.235Z,17.45
2022-10-26T15:48:09.935Z,17.46
2022-10-26T15:53:12.600Z,17.34
2022-10-26T15:58:15.230Z,17.28
2022-10-26T16:03:20.557Z,17.15
2022-10-26T16:08:23.205Z,17.06
2022-10-26T16:13:26.636Z,17.01
2022-10-26T16:18:29.346Z,16.98
2022-10-26T16:23:37.023Z,16.89
2022-10-26T16:28:39.669Z,16.75
2022-10-26T16:33:42.434Z,16.78
2022-10-26T16:38:45.091Z,16.56
2022-10-26T16:43:47.749Z,16.49
2022-10-26T16:48:51.097Z,16.57
2022-10-26T16:53:53.779Z,16.43
2022-10-26T16:58:56.621Z,16.40
2022-10-26T17:04:01.070Z,16.38
2022-10-26T17:09:04.986Z,16.36
2022-10-26T17:14:07.703Z,16.28
2022-10-26T17:19:10.385Z,16.31
2022-10-26T17:24:13.717Z,16.24
2022-10-26T17:29:16.441Z,16.21
2022-10-26T17:34:19.153Z,16.19
2022-10-26T17:39:21.845Z,16.22
2022-10-26T17:44:24.637Z,16.06
2022-10-26T17:49:28.617Z,15.88
2022-10-26T17:54:32.987Z,15.75
2022-10-26T17:59:35.727Z,15.62
2022-10-26T18:04:38.460Z,15.44
2022-10-26T18:09:41.143Z,15.26
2022-10-26T18:14:43.906Z,15.08
2022-10-26T18:19:46.838Z,14.92
2022-10-26T18:24:49.602Z,14.83
2022-10-26T18:29:52.296Z,14.76
2022-10-26T18:34:55.656Z,14.67
2022-10-26T18:39:58.373Z,14.49
2022-10-26T18:45:03.315Z,14.43
2022-10-26T18:50:05.916Z,14.38
2022-10-26T18:55:08.600Z,14.15
2022-10-26T19:00:11.339Z,14.13
2022-10-26T19:05:14.141Z,14.10
2022-10-26T19:10:16.970Z,13.92
2022-10-26T19:15:19.665Z,13.76
2022-10-26T19:20:22.438Z,13.56
2022-10-26T19:25:25.600Z,13.48
2022-10-26T19:30:28.505Z,13.38
2022-10-26T19:35:31.303Z,13.28
2022-10-26T19:40:34.531Z,13.21
2022-10-26T19:45:37.118Z,13.20
2022-10-26T19:50:39.816Z,13.11
2022-10-26T19:55:42.559Z,13.06
2022-10-26T20:00:45.392Z,13.02
2022-10-26T20:05:49.898Z,12.94
2022-10-26T20:10:52.650Z,12.89
2022-10-26T20:15:55.238Z,12.78
2022-10-26T20:20:57.855Z,12.71
2022-10-26T20:26:03.306Z,12.66
2022-10-26T20:31:06.149Z,12.58
2022-10-26T20:36:08.816Z,12.58
2022-10-26T20:41:11.518Z,12.49
2022-10-26T20:46:14.109Z,12.47
2022-10-26T20:51:17.929Z,12.33
2022-10-26T20:56:22.346Z,12.22
2022-10-26T21:01:25.014Z,12.18
2022-10-26T21:06:28.427Z,12.12
2022-10-26T21:11:30.965Z,12.18
2022-10-26T21:16:33.638Z,12.15
2022-10-26T21:21:36.302Z,12.11
2022-10-26T21:26:38.981Z,12.05
2022-10-26T21:31:41.680Z,12.04
2022-10-26T21:36:44.561Z,12.09
2022-10-26T21:41:47.658Z,12.00
2022-10-26T21:46:50.368Z,11.96
2022-10-26T21:51:53.036Z,11.92
2022-10-26T21:56:55.759Z,11.89
2022-10-26T22:01:58.536Z,11.78
2022-10-26T22:07:01.349Z,11.68
2022-10-26T22:12:04.656Z,11.62
2022-10-26T22:17:07.397Z,11.58
2022-10-26T22:22:13.139Z,11.54
2022-10-26T22:27:15.926Z,11.49
2022-10-26T22:32:18.568Z,11.53
2022-10-26T22:37:22.127Z,11.42
2022-10-26T22:42:24.671Z,11.36
2022-10-26T22:47:27.265Z,11.32
2022-10-26T22:52:29.881Z,11.39
2022-10-26T22:57:32.457Z,11.32
2022-10-26T23:02:35.837Z,11.29
2022-10-26T23:07:48.812Z,11.31
2022-10-26T23:12:51.785Z,11.25
2022-10-26T23:17:54.397Z,11.20
2022-10-26T23:22:57.052Z,11.18
2022-10-26T23:27:59.671Z,11.07
2022-10-26T23:33:02.359Z,11.11
2022-10-26T23:38:05.077Z,11.00
2022-10-26T23:43:07.886Z,11.03
2022-10-26T23:48:10.448Z,11.09
2022-10-26T23:53:13.659Z,11.07
2022-10-26T23:58:16.201Z,11.03
